Terminal Aerodrome Forecast
Issued by NWS Bismarck, ND

Home | Current Version | Previous Version | Text Only | Print | Product List | Glossary Off
Versions: 1 2 3 4 5 6 7 8 9 10 11 12 13 14 15 16 17 18 19 20 21

469
FTUS43 KBIS 132336
TAFISN
TAF
KISN 132336Z 1400/1424 13010KT P6SM FEW070
     FM140200 11006KT P6SM SKC
     FM141500 13012KT P6SM FEW130 SCT250
     FM142100 14012KT P6SM VCSH SCT090 OVC110=

USA.gov is the U.S. government's official web portal to all federal, state and local government web resources and services.